sensor_id;sensor_type;location;lat;lon;timestamp;temperature;humidity
30893;DHT22;17595;50.884;4.346;2023-08-06T00:00:06;18.70;99.90
30893;DHT22;17595;50.884;4.346;2023-08-06T00:02:32;18.80;99.90
30893;DHT22;17595;50.884;4.346;2023-08-06T00:04:57;18.80;99.90
30893;DHT22;17595;50.884;4.346;2023-08-06T00:07:23;18.70;99.90
30893;DHT22;17595;50.884;4.346;2023-08-06T00:09:48;18.70;99.90
30893;DHT22;17595;50.884;4.346;2023-08-06T00:12:14;18.70;99.90
30893;DHT22;17595;50.884;4.346;2023-08-06T00:14:40;18.80;99.90
30893;DHT22;17595;50.884;4.346;2023-08-06T00:17:05;18.90;99.90
30893;DHT22;17595;50.884;4.346;2023-08-06T00:19:32;18.90;99.90
30893;DHT22;17595;50.884;4.346;2023-08-06T00:21:57;19.00;99.90
30893;DHT22;17595;50.884;4.346;2023-08-06T00:24:23;18.90;99.90
30893;DHT22;17595;50.884;4.346;2023-08-06T00:26:49;18.90;99.90
30893;DHT22;17595;50.884;4.346;2023-08-06T00:29:15;18.70;99.90
30893;DHT22;17595;50.884;4.346;2023-08-06T00:31:41;18.70;99.90
30893;DHT22;17595;50.884;4.346;2023-08-06T00:34:06;18.70;99.90
30893;DHT22;17595;50.884;4.346;2023-08-06T00:36:32;18.90;99.90
30893;DHT22;17595;50.884;4.346;2023-08-06T00:38:58;18.80;99.90
30893;DHT22;17595;50.884;4.346;2023-08-06T00:41:24;18.80;99.90
30893;DHT22;17595;50.884;4.346;2023-08-06T00:43:49;18.80;99.90
30893;DHT22;17595;50.884;4.346;2023-08-06T00:46:15;18.70;99.90
30893;DHT22;17595;50.884;4.346;2023-08-06T00:48:41;18.60;99.90
30893;DHT22;17595;50.884;4.346;2023-08-06T00:51:10;18.70;99.90
30893;DHT22;17595;50.884;4.346;2023-08-06T00:53:37;18.60;99.90
30893;DHT22;17595;50.884;4.346;2023-08-06T00:56:04;18.70;99.90
30893;DHT22;17595;50.884;4.346;2023-08-06T00:58:30;18.80;99.90
30893;DHT22;17595;50.884;4.346;2023-08-06T01:00:56;18.70;99.90
30893;DHT22;17595;50.884;4.346;2023-08-06T01:03:22;18.70;99.90
30893;DHT22;17595;50.884;4.346;2023-08-06T01:05:47;18.70;99.90
30893;DHT22;17595;50.884;4.346;2023-08-06T01:11:20;18.80;99.90
30893;DHT22;17595;50.884;4.346;2023-08-06T01:13:50;18.80;99.90
30893;DHT22;17595;50.884;4.346;2023-08-06T01:16:20;18.70;99.90
30893;DHT22;17595;50.884;4.346;2023-08-06T01:18:49;18.70;99.90
30893;DHT22;17595;50.884;4.346;2023-08-06T01:21:16;18.70;99.90
30893;DHT22;17595;50.884;4.346;2023-08-06T01:23:42;18.50;99.90
30893;DHT22;17595;50.884;4.346;2023-08-06T01:29:10;18.50;99.90
30893;DHT22;17595;50.884;4.346;2023-08-06T01:31:39;18.60;99.90
30893;DHT22;17595;50.884;4.346;2023-08-06T01:34:10;18.70;99.90
30893;DHT22;17595;50.884;4.346;2023-08-06T01:36:39;18.70;99.90
30893;DHT22;17595;50.884;4.346;2023-08-06T01:39:05;18.60;99.90
30893;DHT22;17595;50.884;4.346;2023-08-06T01:41:31;18.60;99.90
30893;DHT22;17595;50.884;4.346;2023-08-06T01:43:56;18.60;99.90
30893;DHT22;17595;50.884;4.346;2023-08-06T01:46:22;18.60;99.90
30893;DHT22;17595;50.884;4.346;2023-08-06T01:48:48;18.60;99.90
30893;DHT22;17595;50.884;4.346;2023-08-06T01:51:13;18.50;99.90
30893;DHT22;17595;50.884;4.346;2023-08-06T01:53:39;18.60;99.90
30893;DHT22;17595;50.884;4.346;2023-08-06T01:56:04;18.50;99.90
30893;DHT22;17595;50.884;4.346;2023-08-06T01:58:30;18.40;99.90
30893;DHT22;17595;50.884;4.346;2023-08-06T02:00:56;18.30;99.90
30893;DHT22;17595;50.884;4.346;2023-08-06T02:03:21;18.20;99.90
30893;DHT22;17595;50.884;4.346;2023-08-06T02:05:47;18.10;99.90
30893;DHT22;17595;50.884;4.346;2023-08-06T02:08:13;18.10;99.90
30893;DHT22;17595;50.884;4.346;2023-08-06T02:10:38;18.10;99.90
30893;DHT22;17595;50.884;4.346;2023-08-06T02:13:04;18.30;99.90
30893;DHT22;17595;50.884;4.346;2023-08-06T02:15:29;18.30;99.90
30893;DHT22;17595;50.884;4.346;2023-08-06T02:17:55;18.20;99.90
30893;DHT22;17595;50.884;4.346;2023-08-06T02:20:20;18.00;99.90
30893;DHT22;17595;50.884;4.346;2023-08-06T02:22:46;17.90;99.90
30893;DHT22;17595;50.884;4.346;2023-08-06T02:25:12;17.90;99.90
30893;DHT22;17595;50.884;4.346;2023-08-06T02:27:37;17.70;99.90
30893;DHT22;17595;50.884;4.346;2023-08-06T02:30:04;17.90;99.90
30893;DHT22;17595;50.884;4.346;2023-08-06T02:32:30;17.80;99.90
30893;DHT22;17595;50.884;4.346;2023-08-06T02:34:57;17.80;99.90
30893;DHT22;17595;50.884;4.346;2023-08-06T02:37:22;17.70;99.90
30893;DHT22;17595;50.884;4.346;2023-08-06T02:39:48;17.70;99.90
30893;DHT22;17595;50.884;4.346;2023-08-06T02:42:14;17.50;99.90
30893;DHT22;17595;50.884;4.346;2023-08-06T02:44:39;17.50;99.90
30893;DHT22;17595;50.884;4.346;2023-08-06T02:47:05;17.30;99.90
30893;DHT22;17595;50.884;4.346;2023-08-06T02:49:31;17.20;99.90
30893;DHT22;17595;50.884;4.346;2023-08-06T02:51:56;17.20;99.90
30893;DHT22;17595;50.884;4.346;2023-08-06T02:54:22;17.20;99.90
30893;DHT22;17595;50.884;4.346;2023-08-06T02:56:47;17.00;99.90
30893;DHT22;17595;50.884;4.346;2023-08-06T02:59:13;16.90;99.90
30893;DHT22;17595;50.884;4.346;2023-08-06T03:01:39;16.80;99.90
30893;DHT22;17595;50.884;4.346;2023-08-06T03:04:05;16.70;99.90
30893;DHT22;17595;50.884;4.346;2023-08-06T03:06:31;16.60;99.90
30893;DHT22;17595;50.884;4.346;2023-08-06T03:08:56;16.60;99.90
30893;DHT22;17595;50.884;4.346;2023-08-06T03:11:22;16.60;99.90
30893;DHT22;17595;50.884;4.346;2023-08-06T03:13:48;16.60;99.90
30893;DHT22;17595;50.884;4.346;2023-08-06T03:16:14;16.50;99.90
30893;DHT22;17595;50.884;4.346;2023-08-06T03:18:40;16.40;99.90
30893;DHT22;17595;50.884;4.346;2023-08-06T03:21:06;16.40;99.90
30893;DHT22;17595;50.884;4.346;2023-08-06T03:23:31;16.40;99.90
30893;DHT22;17595;50.884;4.346;2023-08-06T03:26:04;16.50;99.90
30893;DHT22;17595;50.884;4.346;2023-08-06T03:28:30;16.50;99.90
30893;DHT22;17595;50.884;4.346;2023-08-06T03:31:02;16.50;99.90
30893;DHT22;17595;50.884;4.346;2023-08-06T03:33:28;16.50;99.90
30893;DHT22;17595;50.884;4.346;2023-08-06T03:35:54;16.40;99.90
30893;DHT22;17595;50.884;4.346;2023-08-06T03:38:20;16.40;99.90
30893;DHT22;17595;50.884;4.346;2023-08-06T03:40:49;16.30;99.90
30893;DHT22;17595;50.884;4.346;2023-08-06T03:43:15;16.30;99.90
30893;DHT22;17595;50.884;4.346;2023-08-06T03:45:41;16.40;99.90
30893;DHT22;17595;50.884;4.346;2023-08-06T03:48:07;16.40;99.90
30893;DHT22;17595;50.884;4.346;2023-08-06T03:50:33;16.40;99.90
30893;DHT22;17595;50.884;4.346;2023-08-06T03:52:59;16.50;99.90
30893;DHT22;17595;50.884;4.346;2023-08-06T03:55:24;16.60;99.90
30893;DHT22;17595;50.884;4.346;2023-08-06T03:57:50;16.60;99.90
30893;DHT22;17595;50.884;4.346;2023-08-06T04:00:16;16.60;99.90
30893;DHT22;17595;50.884;4.346;2023-08-06T04:02:42;16.40;99.90
30893;DHT22;17595;50.884;4.346;2023-08-06T04:05:08;16.40;99.90
30893;DHT22;17595;50.884;4.346;2023-08-06T04:07:34;16.30;99.90
30893;DHT22;17595;50.884;4.346;2023-08-06T04:10:02;16.20;99.90
30893;DHT22;17595;50.884;4.346;2023-08-06T04:12:28;16.10;99.90
30893;DHT22;17595;50.884;4.346;2023-08-06T04:14:55;15.80;99.90
30893;DHT22;17595;50.884;4.346;2023-08-06T04:17:21;15.60;99.90
30893;DHT22;17595;50.884;4.346;2023-08-06T04:19:51;15.50;99.90
30893;DHT22;17595;50.884;4.346;2023-08-06T04:22:18;15.40;99.90
30893;DHT22;17595;50.884;4.346;2023-08-06T04:24:44;15.30;99.90
30893;DHT22;17595;50.884;4.346;2023-08-06T04:27:10;15.20;99.90
30893;DHT22;17595;50.884;4.346;2023-08-06T04:29:36;15.10;99.90
30893;DHT22;17595;50.884;4.346;2023-08-06T04:32:03;15.00;99.90
30893;DHT22;17595;50.884;4.346;2023-08-06T04:34:29;15.10;99.90
30893;DHT22;17595;50.884;4.346;2023-08-06T04:36:55;15.20;99.90
30893;DHT22;17595;50.884;4.346;2023-08-06T04:39:20;15.10;99.90
30893;DHT22;17595;50.884;4.346;2023-08-06T04:41:46;15.10;99.90
30893;DHT22;17595;50.884;4.346;2023-08-06T04:44:11;15.20;99.90
30893;DHT22;17595;50.884;4.346;2023-08-06T04:46:37;15.10;99.90
30893;DHT22;17595;50.884;4.346;2023-08-06T04:49:03;15.10;99.90
30893;DHT22;17595;50.884;4.346;2023-08-06T04:51:28;15.00;99.90
30893;DHT22;17595;50.884;4.346;2023-08-06T04:53:54;14.90;99.90
30893;DHT22;17595;50.884;4.346;2023-08-06T04:56:20;14.90;99.90
30893;DHT22;17595;50.884;4.346;2023-08-06T04:58:45;14.90;99.90
30893;DHT22;17595;50.884;4.346;2023-08-06T05:01:11;14.90;99.90
30893;DHT22;17595;50.884;4.346;2023-08-06T05:03:37;14.90;99.90
30893;DHT22;17595;50.884;4.346;2023-08-06T05:06:02;14.90;99.90
30893;DHT22;17595;50.884;4.346;2023-08-06T05:08:28;14.90;99.90
30893;DHT22;17595;50.884;4.346;2023-08-06T05:10:53;14.80;99.90
30893;DHT22;17595;50.884;4.346;2023-08-06T05:13:19;14.80;99.90
30893;DHT22;17595;50.884;4.346;2023-08-06T05:15:45;14.70;99.90
30893;DHT22;17595;50.884;4.346;2023-08-06T05:18:12;14.80;99.90
30893;DHT22;17595;50.884;4.346;2023-08-06T05:20:39;14.70;99.90
30893;DHT22;17595;50.884;4.346;2023-08-06T05:23:05;14.70;99.90
30893;DHT22;17595;50.884;4.346;2023-08-06T05:25:30;14.70;99.90
30893;DHT22;17595;50.884;4.346;2023-08-06T05:27:56;14.80;99.90
30893;DHT22;17595;50.884;4.346;2023-08-06T05:30:22;14.70;99.90
30893;DHT22;17595;50.884;4.346;2023-08-06T05:32:47;14.70;99.90
30893;DHT22;17595;50.884;4.346;2023-08-06T05:35:13;14.70;99.90
30893;DHT22;17595;50.884;4.346;2023-08-06T05:37:39;14.70;99.90
30893;DHT22;17595;50.884;4.346;2023-08-06T05:40:05;14.70;99.90
30893;DHT22;17595;50.884;4.346;2023-08-06T05:42:30;14.80;99.90
30893;DHT22;17595;50.884;4.346;2023-08-06T05:44:56;14.70;99.90
30893;DHT22;17595;50.884;4.346;2023-08-06T05:47:22;14.70;99.90
30893;DHT22;17595;50.884;4.346;2023-08-06T05:49:47;14.70;99.90
30893;DHT22;17595;50.884;4.346;2023-08-06T05:52:13;14.70;99.90
30893;DHT22;17595;50.884;4.346;2023-08-06T05:54:39;14.70;99.90
30893;DHT22;17595;50.884;4.346;2023-08-06T05:57:06;14.70;99.90
30893;DHT22;17595;50.884;4.346;2023-08-06T05:59:32;14.60;99.90
30893;DHT22;17595;50.884;4.346;2023-08-06T06:01:57;14.60;99.90
30893;DHT22;17595;50.884;4.346;2023-08-06T06:04:25;14.60;99.90
30893;DHT22;17595;50.884;4.346;2023-08-06T06:06:50;14.60;99.90
30893;DHT22;17595;50.884;4.346;2023-08-06T06:09:16;14.60;99.90
30893;DHT22;17595;50.884;4.346;2023-08-06T06:11:42;14.50;99.90
30893;DHT22;17595;50.884;4.346;2023-08-06T06:14:07;14.60;99.90
30893;DHT22;17595;50.884;4.346;2023-08-06T06:16:34;14.60;99.90
30893;DHT22;17595;50.884;4.346;2023-08-06T06:18:59;14.70;99.90
30893;DHT22;17595;50.884;4.346;2023-08-06T06:21:25;14.70;99.90
30893;DHT22;17595;50.884;4.346;2023-08-06T06:23:51;14.60;99.90
30893;DHT22;17595;50.884;4.346;2023-08-06T06:26:20;14.60;99.90
30893;DHT22;17595;50.884;4.346;2023-08-06T06:28:46;14.70;99.90
30893;DHT22;17595;50.884;4.346;2023-08-06T06:31:11;14.60;99.90
30893;DHT22;17595;50.884;4.346;2023-08-06T06:33:37;14.60;99.90
30893;DHT22;17595;50.884;4.346;2023-08-06T06:36:03;14.60;99.90
30893;DHT22;17595;50.884;4.346;2023-08-06T06:38:29;14.70;99.90
30893;DHT22;17595;50.884;4.346;2023-08-06T06:40:58;14.70;99.90
30893;DHT22;17595;50.884;4.346;2023-08-06T06:43:24;14.70;99.90
30893;DHT22;17595;50.884;4.346;2023-08-06T06:45:57;14.80;99.90
30893;DHT22;17595;50.884;4.346;2023-08-06T06:48:27;14.70;99.90
30893;DHT22;17595;50.884;4.346;2023-08-06T06:50:53;14.60;99.90
30893;DHT22;17595;50.884;4.346;2023-08-06T06:53:19;14.70;99.90
30893;DHT22;17595;50.884;4.346;2023-08-06T06:55:44;14.60;99.90
30893;DHT22;17595;50.884;4.346;2023-08-06T06:58:11;14.60;99.90
30893;DHT22;17595;50.884;4.346;2023-08-06T07:00:37;14.60;99.90
30893;DHT22;17595;50.884;4.346;2023-08-06T07:03:03;14.60;99.90
30893;DHT22;17595;50.884;4.346;2023-08-06T07:05:29;14.50;99.90
30893;DHT22;17595;50.884;4.346;2023-08-06T07:07:55;14.50;99.90
30893;DHT22;17595;50.884;4.346;2023-08-06T07:10:20;14.60;99.90
30893;DHT22;17595;50.884;4.346;2023-08-06T07:12:46;14.70;99.90
30893;DHT22;17595;50.884;4.346;2023-08-06T07:15:11;14.80;99.90
30893;DHT22;17595;50.884;4.346;2023-08-06T07:17:37;14.80;99.90
30893;DHT22;17595;50.884;4.346;2023-08-06T07:20:04;14.70;99.90
30893;DHT22;17595;50.884;4.346;2023-08-06T07:22:29;14.70;99.90
30893;DHT22;17595;50.884;4.346;2023-08-06T07:24:55;14.70;99.90
30893;DHT22;17595;50.884;4.346;2023-08-06T07:27:21;14.80;99.90
30893;DHT22;17595;50.884;4.346;2023-08-06T07:29:46;14.70;99.90
30893;DHT22;17595;50.884;4.346;2023-08-06T07:32:13;14.70;99.90
30893;DHT22;17595;50.884;4.346;2023-08-06T07:34:39;14.70;99.90
30893;DHT22;17595;50.884;4.346;2023-08-06T07:37:05;14.70;99.90
30893;DHT22;17595;50.884;4.346;2023-08-06T07:39:31;14.80;99.90
30893;DHT22;17595;50.884;4.346;2023-08-06T07:41:57;14.80;99.90
30893;DHT22;17595;50.884;4.346;2023-08-06T07:44:22;14.90;99.90
30893;DHT22;17595;50.884;4.346;2023-08-06T07:46:49;15.00;99.90
30893;DHT22;17595;50.884;4.346;2023-08-06T07:49:15;15.10;99.90
30893;DHT22;17595;50.884;4.346;2023-08-06T07:51:41;15.10;99.90
30893;DHT22;17595;50.884;4.346;2023-08-06T07:54:07;15.00;99.90
30893;DHT22;17595;50.884;4.346;2023-08-06T07:56:32;15.00;99.90
30893;DHT22;17595;50.884;4.346;2023-08-06T07:58:58;15.00;99.90
30893;DHT22;17595;50.884;4.346;2023-08-06T08:01:24;15.10;99.90
30893;DHT22;17595;50.884;4.346;2023-08-06T08:03:50;15.10;99.90
30893;DHT22;17595;50.884;4.346;2023-08-06T08:06:16;15.30;99.90
30893;DHT22;17595;50.884;4.346;2023-08-06T08:08:42;15.30;99.90
30893;DHT22;17595;50.884;4.346;2023-08-06T08:11:08;15.40;99.90
30893;DHT22;17595;50.884;4.346;2023-08-06T08:13:34;15.40;99.90
30893;DHT22;17595;50.884;4.346;2023-08-06T08:16:00;15.40;99.90
30893;DHT22;17595;50.884;4.346;2023-08-06T08:18:26;15.40;99.90
30893;DHT22;17595;50.884;4.346;2023-08-06T08:20:51;15.40;99.90
30893;DHT22;17595;50.884;4.346;2023-08-06T08:23:17;15.30;99.90
30893;DHT22;17595;50.884;4.346;2023-08-06T08:25:43;15.30;99.90
30893;DHT22;17595;50.884;4.346;2023-08-06T08:28:09;15.30;99.90
30893;DHT22;17595;50.884;4.346;2023-08-06T08:30:34;15.20;99.90
30893;DHT22;17595;50.884;4.346;2023-08-06T08:33:00;15.20;99.90
30893;DHT22;17595;50.884;4.346;2023-08-06T08:35:26;15.10;99.90
30893;DHT22;17595;50.884;4.346;2023-08-06T08:37:51;15.00;99.90
30893;DHT22;17595;50.884;4.346;2023-08-06T08:40:17;15.00;99.90
30893;DHT22;17595;50.884;4.346;2023-08-06T08:42:43;15.10;99.90
30893;DHT22;17595;50.884;4.346;2023-08-06T08:45:14;15.10;99.90
30893;DHT22;17595;50.884;4.346;2023-08-06T08:47:42;15.10;99.90
30893;DHT22;17595;50.884;4.346;2023-08-06T08:50:09;15.10;99.90
30893;DHT22;17595;50.884;4.346;2023-08-06T08:52:38;15.20;99.90
30893;DHT22;17595;50.884;4.346;2023-08-06T08:55:04;15.20;99.90
30893;DHT22;17595;50.884;4.346;2023-08-06T08:57:30;15.40;99.90
30893;DHT22;17595;50.884;4.346;2023-08-06T08:59:56;15.60;99.90
30893;DHT22;17595;50.884;4.346;2023-08-06T09:02:25;15.60;99.90
30893;DHT22;17595;50.884;4.346;2023-08-06T09:04:54;15.60;99.90
30893;DHT22;17595;50.884;4.346;2023-08-06T09:07:20;15.60;99.90
30893;DHT22;17595;50.884;4.346;2023-08-06T09:09:49;15.60;99.90
30893;DHT22;17595;50.884;4.346;2023-08-06T09:12:16;15.50;99.90
30893;DHT22;17595;50.884;4.346;2023-08-06T09:14:42;15.50;99.90
30893;DHT22;17595;50.884;4.346;2023-08-06T09:17:09;15.50;99.90
30893;DHT22;17595;50.884;4.346;2023-08-06T09:19:36;15.50;99.90
30893;DHT22;17595;50.884;4.346;2023-08-06T09:22:02;15.60;99.90
30893;DHT22;17595;50.884;4.346;2023-08-06T09:24:28;15.60;99.90
30893;DHT22;17595;50.884;4.346;2023-08-06T09:26:54;15.40;99.90
30893;DHT22;17595;50.884;4.346;2023-08-06T09:29:20;15.40;99.90
30893;DHT22;17595;50.884;4.346;2023-08-06T09:31:50;15.30;99.90
30893;DHT22;17595;50.884;4.346;2023-08-06T09:34:22;15.20;99.90
30893;DHT22;17595;50.884;4.346;2023-08-06T09:36:49;15.30;99.90
30893;DHT22;17595;50.884;4.346;2023-08-06T09:39:17;15.20;99.90
30893;DHT22;17595;50.884;4.346;2023-08-06T09:41:44;15.10;99.90
30893;DHT22;17595;50.884;4.346;2023-08-06T09:44:19;15.10;99.90
30893;DHT22;17595;50.884;4.346;2023-08-06T09:46:49;15.20;99.90
30893;DHT22;17595;50.884;4.346;2023-08-06T09:49:15;15.20;99.90
30893;DHT22;17595;50.884;4.346;2023-08-06T09:51:41;15.30;99.90
30893;DHT22;17595;50.884;4.346;2023-08-06T09:54:08;15.30;99.90
30893;DHT22;17595;50.884;4.346;2023-08-06T09:56:38;15.20;99.90
30893;DHT22;17595;50.884;4.346;2023-08-06T09:59:06;15.20;99.90
30893;DHT22;17595;50.884;4.346;2023-08-06T10:01:34;15.20;99.90
30893;DHT22;17595;50.884;4.346;2023-08-06T10:04:04;15.30;99.90
30893;DHT22;17595;50.884;4.346;2023-08-06T10:06:35;15.30;99.90
30893;DHT22;17595;50.884;4.346;2023-08-06T10:09:04;15.40;99.90
30893;DHT22;17595;50.884;4.346;2023-08-06T10:11:30;15.40;99.90
30893;DHT22;17595;50.884;4.346;2023-08-06T10:14:28;15.30;99.90
30893;DHT22;17595;50.884;4.346;2023-08-06T10:16:57;15.50;99.90
30893;DHT22;17595;50.884;4.346;2023-08-06T10:19:23;15.50;99.90
30893;DHT22;17595;50.884;4.346;2023-08-06T10:22:17;15.50;99.90
30893;DHT22;17595;50.884;4.346;2023-08-06T10:24:59;15.30;99.90
30893;DHT22;17595;50.884;4.346;2023-08-06T10:27:35;15.20;99.90
30893;DHT22;17595;50.884;4.346;2023-08-06T10:30:29;15.10;99.90
30893;DHT22;17595;50.884;4.346;2023-08-06T10:32:59;15.10;99.90
30893;DHT22;17595;50.884;4.346;2023-08-06T10:35:30;15.00;99.90
30893;DHT22;17595;50.884;4.346;2023-08-06T10:38:07;15.00;99.90
30893;DHT22;17595;50.884;4.346;2023-08-06T10:40:33;14.90;99.90
30893;DHT22;17595;50.884;4.346;2023-08-06T10:43:03;14.90;99.90
30893;DHT22;17595;50.884;4.346;2023-08-06T10:45:29;14.90;99.90
30893;DHT22;17595;50.884;4.346;2023-08-06T10:47:56;15.00;99.90
30893;DHT22;17595;50.884;4.346;2023-08-06T10:50:23;15.00;99.90
30893;DHT22;17595;50.884;4.346;2023-08-06T10:52:49;15.10;99.90
30893;DHT22;17595;50.884;4.346;2023-08-06T10:55:23;15.10;99.90
30893;DHT22;17595;50.884;4.346;2023-08-06T10:57:50;15.20;99.90
30893;DHT22;17595;50.884;4.346;2023-08-06T11:00:16;15.20;99.90
30893;DHT22;17595;50.884;4.346;2023-08-06T11:02:41;15.10;99.90
30893;DHT22;17595;50.884;4.346;2023-08-06T11:05:08;15.20;99.90
30893;DHT22;17595;50.884;4.346;2023-08-06T11:07:35;15.20;99.90
30893;DHT22;17595;50.884;4.346;2023-08-06T11:10:05;15.30;99.90
30893;DHT22;17595;50.884;4.346;2023-08-06T11:12:32;15.30;99.90
30893;DHT22;17595;50.884;4.346;2023-08-06T11:14:58;15.30;99.90
30893;DHT22;17595;50.884;4.346;2023-08-06T11:17:24;15.30;99.90
30893;DHT22;17595;50.884;4.346;2023-08-06T11:19:50;15.30;99.90
30893;DHT22;17595;50.884;4.346;2023-08-06T11:22:16;15.40;99.90
30893;DHT22;17595;50.884;4.346;2023-08-06T11:24:43;15.50;99.90
30893;DHT22;17595;50.884;4.346;2023-08-06T11:27:13;15.50;99.90
30893;DHT22;17595;50.884;4.346;2023-08-06T11:29:40;15.40;99.90
30893;DHT22;17595;50.884;4.346;2023-08-06T11:32:07;15.20;99.90
30893;DHT22;17595;50.884;4.346;2023-08-06T11:34:33;15.10;99.90
30893;DHT22;17595;50.884;4.346;2023-08-06T11:36:59;15.00;99.90
30893;DHT22;17595;50.884;4.346;2023-08-06T11:39:25;14.90;99.90
